Nice, France

6:09 PM CET on January 31, 2015 (GMT +0100)
Nice-Cote d'Azur | Change Station
CLOSE
Current Station
Airport
Location: Nice,
Elevation: 10 ft
Nearby Weather Stations

Elev 10 ft 43.65 °N, 7.21 °E | Updated 9 minutes ago

Scattered Clouds
Scattered Clouds
52 °F
Feels Like 52 °F
N
2
Wind Variable Wind from Variable

Today
High -- | Low -- °F
--% Chance of Precip.
Yesterday
High -- | Low -- °F
Precip. -- in
7:49 AM 5:40 PM
Waxing Gibbous, 90% visible
Pressure 29.09 in
Visibility 6.2 miles
Clouds Few 2300 ft
Few 2600 ft
Scattered Clouds 16000 ft
Dew Point 32 °F
Humidity 47%
Rainfall 0.00 in
Snow Depth Not available.
UV 0 out of 12
Pollen Not available.
Air Quality Not available.
Flu Activity Not available.
METAR LFMN 311700Z VRB02KT 9999 FEW023 FEW026CB SCT160 11/M00 Q0985 NOSIG

More Conditions Fewer Conditions

Pressure 29.09 in
Visibility 6.2 miles
Clouds Few 2300 ft
Few 2600 ft
Scattered Clouds 16000 ft
Dew Point 32 °F
Humidity 47%
Rainfall 0.00 in
Snow Depth Not available.
UV 0 out of 12
Pollen Not available.
Air Quality Not available.
Flu Activity Not available.
METAR LFMN 311700Z VRB02KT 9999 FEW023 FEW026CB SCT160 11/M00 Q0985 NOSIG

More Conditions Fewer Conditions

10-Day Weather Forecast

Almanac

Astronomy

Jan. 31, 2015 Rise Set
Actual Time
Civil Twilight
Nautical Twilight
Astronomical Twilight
Moon
Length of Visible Light
Length of Day
Tomorrow will be .
, % of the Moon is Illuminated

Today's Extremes

Country Highs Country Lows

Community

WunderPhotos

Upload Photos

1,792,117 photos uploaded!

WunderBlogs® & News

Nearby

Air Quality

  Air Quality AQ Index Pollutant
Not available.

Snow Depth

Station Depth Elevation

Earthquake Activity

City Distance Mag. Time & Date
Minimum magnitude displayed is 2.5.

Coastal Water Temperatures

Place Temperature

Nearby Weather Stations